Time;durP1;ratioP1;P1;durP2;ratioP2;P2;SDS_P1;SDS_P2;PMS_P1;PMS_P2;Temp;Humidity;BMP_temperature;BMP_pressure;BME280_temperature;BME280_humidity;BME280_pressure;Samples;Min_cycle;Max_cycle;Signal;HPM_P1;HPM_P2
2023/09/05 00:02:19;;;;;;;11.15;8.20;;;15.30;99.90;;;;;;5114000;28;20043;-65
2023/09/05 00:04:47;;;;;;;10.77;8.18;;;15.20;99.90;;;;;;5096661;27;20089;-66
2023/09/05 00:07:16;;;;;;;12.75;8.63;;;15.20;99.90;;;;;;5078039;28;20054;-66
2023/09/05 00:09:43;;;;;;;10.80;7.87;;;15.10;99.90;;;;;;5111163;28;20051;-66
2023/09/05 00:12:12;;;;;;;9.45;7.28;;;15.10;99.90;;;;;;5096013;27;20169;-66
2023/09/05 00:14:39;;;;;;;9.63;8.00;;;15.20;99.90;;;;;;5087123;28;20130;-67
2023/09/05 00:17:06;;;;;;;9.98;7.40;;;15.10;99.90;;;;;;5095911;27;20047;-67
2023/09/05 00:19:33;;;;;;;9.80;7.35;;;15.10;99.90;;;;;;5094181;27;20058;-66
2023/09/05 00:22:00;;;;;;;11.63;8.10;;;15.10;99.90;;;;;;5078408;28;20099;-66
2023/09/05 00:24:31;;;;;;;8.48;7.53;;;15.00;99.90;;;;;;5077322;28;20044;-66
2023/09/05 00:26:58;;;;;;;;;;;15.00;99.90;;;;;;5133123;27;20043;-66
2023/09/05 00:29:27;;;;;;;10.73;7.80;;;15.00;99.90;;;;;;5114089;27;19923;-66
2023/09/05 00:31:58;;;;;;;12.05;7.28;;;15.00;99.90;;;;;;5132169;27;20513;-66
2023/09/05 00:34:26;;;;;;;;;;;15.00;99.90;;;;;;5094471;28;20047;-66
2023/09/05 00:36:53;;;;;;;11.65;8.13;;;15.00;99.90;;;;;;5075096;28;20368;-66
2023/09/05 00:39:20;;;;;;;10.50;7.53;;;15.00;99.90;;;;;;5093512;27;20123;-66
2023/09/05 00:41:48;;;;;;;9.05;6.70;;;14.90;99.90;;;;;;5110691;28;20051;-65
2023/09/05 00:44:15;;;;;;;9.27;7.45;;;14.90;99.90;;;;;;5104318;28;20388;-66
2023/09/05 00:46:45;;;;;;;10.60;7.78;;;14.90;99.90;;;;;;5092631;28;20059;-66
2023/09/05 00:49:12;;;;;;;9.40;7.35;;;14.80;99.90;;;;;;5104055;28;20048;-65
2023/09/05 00:51:42;;;;;;;8.88;7.30;;;14.90;99.90;;;;;;5098160;27;20048;-65
2023/09/05 00:54:11;;;;;;;11.95;7.65;;;14.90;99.90;;;;;;5113723;27;20043;-67
2023/09/05 00:56:38;;;;;;;8.35;6.90;;;14.80;99.90;;;;;;5114304;27;20046;-67
2023/09/05 00:59:06;;;;;;;9.52;7.72;;;14.80;99.90;;;;;;5131660;27;20047;-67
2023/09/05 01:01:33;;;;;;;9.93;7.88;;;14.80;99.90;;;;;;5132585;27;20099;-67
2023/09/05 01:04:02;;;;;;;10.60;7.40;;;14.80;99.90;;;;;;5101289;28;20059;-67
2023/09/05 01:06:38;;;;;;;10.15;7.88;;;14.80;99.90;;;;;;5095578;28;20416;-67
2023/09/05 01:09:26;;;;;;;10.00;7.57;;;14.80;99.90;;;;;;5101705;28;20043;-67
2023/09/05 01:11:54;;;;;;;10.73;7.63;;;14.80;99.90;;;;;;5094974;28;20048;-66
2023/09/05 01:14:21;;;;;;;10.45;6.85;;;14.80;99.90;;;;;;5078011;28;20051;-67
2023/09/05 01:16:48;;;;;;;9.23;7.82;;;14.80;99.90;;;;;;5075097;28;20121;-66
2023/09/05 01:19:18;;;;;;;10.18;7.30;;;14.90;99.90;;;;;;5093699;28;20113;-67
2023/09/05 01:22:02;;;;;;;11.52;8.55;;;14.80;99.90;;;;;;5091960;28;20051;-67
2023/09/05 01:24:32;;;;;;;11.48;7.80;;;14.90;99.90;;;;;;5077214;28;20048;-67
2023/09/05 01:26:59;;;;;;;9.90;7.57;;;14.90;99.90;;;;;;5075793;28;20055;-65
2023/09/05 01:29:29;;;;;;;11.02;8.52;;;14.90;99.90;;;;;;5108681;27;20402;-65
2023/09/05 01:31:59;;;;;;;13.90;9.13;;;14.90;99.90;;;;;;5135967;27;20047;-65
2023/09/05 01:34:26;;;;;;;10.40;8.32;;;14.90;99.90;;;;;;5117871;27;20511;-65
2023/09/05 01:36:53;;;;;;;11.55;8.07;;;14.90;99.90;;;;;;5117207;27;20498;-65
2023/09/05 01:39:20;;;;;;;9.02;7.53;;;14.90;99.90;;;;;;5116804;27;20144;-65
2023/09/05 01:41:49;;;;;;;10.45;8.45;;;14.90;99.90;;;;;;5100231;27;20058;-64
2023/09/05 01:44:16;;;;;;;9.95;8.55;;;15.00;99.90;;;;;;5096827;27;20503;-65
2023/09/05 01:46:43;;;;;;;13.32;8.77;;;14.90;99.90;;;;;;5114669;28;20040;-66
2023/09/05 01:49:09;;;;;;;12.00;9.02;;;14.90;99.90;;;;;;5098036;27;20047;-65
2023/09/05 01:51:37;;;;;;;10.73;7.45;;;14.90;99.90;;;;;;5107092;27;20044;-65
2023/09/05 01:54:04;;;;;;;11.52;7.72;;;14.90;99.90;;;;;;5096254;27;20048;-66
2023/09/05 01:56:31;;;;;;;10.30;8.00;;;14.90;99.90;;;;;;5081259;28;20445;-66
2023/09/05 01:58:59;;;;;;;10.57;8.15;;;14.90;99.90;;;;;;5096904;27;20093;-63
2023/09/05 02:01:27;;;;;;;10.05;8.18;;;14.90;99.90;;;;;;5105027;27;20101;-65
2023/09/05 02:03:55;;;;;;;10.48;8.50;;;14.90;99.90;;;;;;5098689;28;20115;-65
2023/09/05 02:06:21;;;;;;;13.77;8.00;;;14.90;99.90;;;;;;5079346;28;20394;-66
2023/09/05 02:08:49;;;;;;;11.15;8.05;;;14.90;99.90;;;;;;5096822;27;20048;-66
2023/09/05 02:11:16;;;;;;;9.52;7.55;;;14.90;99.90;;;;;;5078993;28;20464;-66
2023/09/05 02:13:43;;;;;;;11.45;8.10;;;14.90;99.90;;;;;;5097112;27;20044;-65
2023/09/05 02:16:18;;;;;;;12.05;7.72;;;14.90;99.90;;;;;;5095960;27;20044;-65
2023/09/05 02:18:46;;;;;;;11.57;7.75;;;14.90;99.90;;;;;;5079486;28;20079;-66
2023/09/05 02:21:14;;;;;;;10.60;8.35;;;14.90;99.90;;;;;;5079017;28;20101;-65
2023/09/05 02:23:41;;;;;;;13.38;7.88;;;14.90;99.90;;;;;;5095650;28;20047;-65
2023/09/05 02:26:09;;;;;;;10.13;7.60;;;14.90;99.90;;;;;;5098601;27;20067;-64
2023/09/05 02:28:37;;;;;;;11.07;8.10;;;14.90;99.90;;;;;;5134497;27;20469;-66
2023/09/05 02:31:06;;;;;;;11.45;8.23;;;14.90;99.90;;;;;;5135762;27;20043;-65
2023/09/05 02:33:36;;;;;;;10.00;7.22;;;14.90;99.90;;;;;;5134644;27;20039;-66
2023/09/05 02:36:08;;;;;;;11.13;8.38;;;14.90;99.90;;;;;;5116827;27;20324;-65
2023/09/05 02:38:35;;;;;;;11.07;8.30;;;14.80;99.90;;;;;;5134260;27;20079;-65
2023/09/05 02:41:02;;;;;;;15.43;8.38;;;14.90;99.90;;;;;;5116193;27;20054;-65
2023/09/05 02:43:29;;;;;;;10.70;8.18;;;14.90;99.90;;;;;;5134000;27;20043;-66
2023/09/05 02:45:56;;;;;;;11.82;8.52;;;14.90;99.90;;;;;;5117590;27;20436;-66
2023/09/05 02:48:23;;;;;;;11.32;8.07;;;14.90;99.90;;;;;;5116059;27;20051;-65
2023/09/05 02:51:01;;;;;;;10.55;8.15;;;14.80;99.90;;;;;;5116462;27;20081;-65
2023/09/05 02:53:28;;;;;;;11.23;8.38;;;14.80;99.90;;;;;;5135117;27;20490;-65
2023/09/05 02:55:55;;;;;;;9.48;7.60;;;14.90;99.90;;;;;;5116088;27;20127;-66
2023/09/05 02:58:25;;;;;;;11.20;8.68;;;14.80;99.90;;;;;;5121109;27;20052;-66
2023/09/05 03:00:52;;;;;;;10.90;7.73;;;14.80;99.90;;;;;;5095859;28;20101;-66
2023/09/05 03:03:19;;;;;;;12.55;8.52;;;14.80;99.90;;;;;;5116894;27;20070;-65
2023/09/05 03:05:46;;;;;;;18.30;8.70;;;14.80;99.90;;;;;;5115313;27;20054;-65
2023/09/05 03:08:14;;;;;;;11.18;7.97;;;14.80;99.90;;;;;;5091796;28;20442;-66
2023/09/05 03:10:41;;;;;;;9.73;7.70;;;14.80;99.90;;;;;;5077451;27;20427;-66
2023/09/05 03:13:08;;;;;;;10.05;8.38;;;14.80;99.90;;;;;;5080011;28;20447;-66
2023/09/05 03:15:35;;;;;;;11.27;8.60;;;14.80;99.90;;;;;;5079243;28;20438;-65
2023/09/05 03:18:02;;;;;;;11.23;9.23;;;14.80;99.90;;;;;;5133476;27;20107;-65
2023/09/05 03:20:29;;;;;;;13.20;9.88;;;14.80;99.90;;;;;;5128841;27;20052;-65
2023/09/05 03:22:56;;;;;;;14.63;8.98;;;14.80;99.90;;;;;;5078510;28;20052;-66
2023/09/05 03:25:24;;;;;;;10.88;8.13;;;14.80;99.90;;;;;;5079709;28;20055;-66
2023/09/05 03:27:51;;;;;;;12.52;9.77;;;14.80;99.90;;;;;;5077701;28;20048;-66
2023/09/05 03:30:18;;;;;;;16.20;8.85;;;14.80;99.90;;;;;;5094409;28;20040;-66
2023/09/05 03:32:45;;;;;;;13.85;8.80;;;14.80;99.90;;;;;;5094518;27;20047;-66
2023/09/05 03:35:12;;;;;;;10.32;7.18;;;14.80;99.90;;;;;;5093530;28;20043;-65
2023/09/05 03:37:39;;;;;;;12.60;8.70;;;14.90;99.90;;;;;;5083300;28;20499;-66
2023/09/05 03:40:07;;;;;;;15.35;9.38;;;15.10;99.90;;;;;;5090637;28;20047;-66
2023/09/05 03:42:36;;;;;;;11.45;8.93;;;15.20;99.90;;;;;;5110109;27;20043;-66
2023/09/05 03:45:03;;;;;;;9.48;6.70;;;15.20;99.90;;;;;;5092530;28;20055;-66
2023/09/05 03:47:30;;;;;;;13.73;9.55;;;15.20;99.90;;;;;;5108064;28;20043;-66
2023/09/05 03:49:58;;;;;;;10.82;7.88;;;15.30;99.90;;;;;;5107820;27;20044;-66
2023/09/05 03:52:25;;;;;;;13.85;9.70;;;15.30;99.90;;;;;;5093087;28;20080;-66
2023/09/05 03:54:52;;;;;;;9.80;7.45;;;15.40;99.90;;;;;;5100171;28;20059;-66
2023/09/05 03:57:19;;;;;;;13.98;9.02;;;15.40;99.90;;;;;;5089879;27;20446;-65
2023/09/05 03:59:47;;;;;;;10.45;7.80;;;15.50;99.90;;;;;;5103975;27;20126;-66
2023/09/05 04:02:14;;;;;;;13.80;7.18;;;15.50;99.90;;;;;;5094194;28;20100;-66
2023/09/05 04:04:41;;;;;;;15.70;7.53;;;15.70;99.90;;;;;;5089688;28;20495;-65
2023/09/05 04:07:08;;;;;;;10.48;7.63;;;15.70;99.90;;;;;;5109665;28;20036;-66
2023/09/05 04:09:35;;;;;;;14.30;6.78;;;15.80;99.90;;;;;;5107505;28;20040;-65
2023/09/05 04:12:02;;;;;;;15.30;8.55;;;15.90;99.90;;;;;;5110156;28;20048;-65
2023/09/05 04:14:29;;;;;;;11.60;8.15;;;15.70;99.90;;;;;;5101359;28;20442;-65
2023/09/05 04:16:57;;;;;;;10.10;6.45;;;15.50;99.90;;;;;;5101767;28;20063;-65
2023/09/05 04:19:24;;;;;;;14.43;8.55;;;15.80;99.90;;;;;;5111006;28;20059;-66
2023/09/05 04:21:51;;;;;;;8.88;7.25;;;15.60;99.90;;;;;;5091407;28;20051;-66
2023/09/05 04:24:18;;;;;;;10.80;7.40;;;15.70;99.90;;;;;;5106489;27;20054;-66
2023/09/05 04:26:45;;;;;;;10.80;7.28;;;15.80;99.90;;;;;;5096723;28;20062;-67
2023/09/05 04:29:12;;;;;;;12.02;8.45;;;15.80;99.90;;;;;;5107632;28;20047;-68
2023/09/05 04:31:39;;;;;;;14.02;7.82;;;15.90;99.90;;;;;;5091826;28;20452;-67
2023/09/05 04:34:07;;;;;;;11.52;8.07;;;16.00;99.90;;;;;;5107904;28;20096;-67
2023/09/05 04:36:36;;;;;;;10.02;7.95;;;16.10;99.90;;;;;;5098517;28;20047;-67
2023/09/05 04:39:03;;;;;;;10.98;7.75;;;16.20;99.90;;;;;;5094704;28;20043;-67
2023/09/05 04:41:30;;;;;;;11.05;7.30;;;16.30;99.90;;;;;;5106074;28;20048;-68
2023/09/05 04:43:57;;;;;;;11.93;9.18;;;16.30;99.90;;;;;;5111409;28;20054;-65
2023/09/05 04:46:24;;;;;;;10.27;8.82;;;16.40;99.90;;;;;;5091590;28;20059;-66
2023/09/05 04:48:53;;;;;;;12.48;8.70;;;16.30;99.90;;;;;;5092781;28;20055;-70
2023/09/05 04:51:21;;;;;;;11.35;9.23;;;16.00;99.90;;;;;;5099577;27;20605;-66
2023/09/05 04:53:48;;;;;;;12.63;8.98;;;15.80;99.90;;;;;;5093430;28;20054;-66
2023/09/05 04:56:17;;;;;;;10.93;6.20;;;15.90;99.90;;;;;;5087308;27;20460;-66
2023/09/05 04:58:45;;;;;;;11.05;8.02;;;16.10;99.90;;;;;;5102345;28;20052;-67
2023/09/05 05:01:12;;;;;;;12.52;8.68;;;16.00;99.90;;;;;;5092635;28;20101;-66
2023/09/05 05:03:39;;;;;;;12.45;9.20;;;16.10;99.90;;;;;;5104520;28;20047;-66
2023/09/05 05:06:06;;;;;;;12.63;7.55;;;16.10;99.90;;;;;;5104155;28;20126;-67
2023/09/05 05:08:34;;;;;;;10.32;7.63;;;16.10;99.90;;;;;;5100632;28;20044;-66
2023/09/05 05:11:04;;;;;;;10.40;6.97;;;16.30;99.90;;;;;;5105284;28;20093;-67
2023/09/05 05:13:30;;;;;;;;;;;16.40;99.90;;;;;;5083701;28;20454;-67
2023/09/05 05:15:57;;;;;;;10.52;7.57;;;16.30;99.90;;;;;;5108050;28;19916;-69
2023/09/05 05:18:24;;;;;;;8.80;6.72;;;16.60;99.90;;;;;;5091968;28;20463;-67
2023/09/05 05:20:51;;;;;;;14.25;8.38;;;16.40;99.90;;;;;;5110834;28;20384;-66
2023/09/05 05:23:18;;;;;;;19.10;9.02;;;16.60;99.90;;;;;;5087158;28;20039;-66
2023/09/05 05:25:46;;;;;;;12.07;8.88;;;16.80;99.90;;;;;;5092226;28;20043;-67
2023/09/05 05:28:13;;;;;;;10.20;7.93;;;16.40;99.90;;;;;;5077727;28;20502;-66
2023/09/05 05:30:41;;;;;;;9.27;7.22;;;16.50;99.90;;;;;;5102869;28;20079;-65
2023/09/05 05:33:08;;;;;;;12.23;9.00;;;16.80;99.90;;;;;;5073182;28;20720;-67
2023/09/05 05:35:35;;;;;;;11.60;8.52;;;16.40;99.90;;;;;;5086918;28;20043;-66
2023/09/05 05:38:01;;;;;;;10.43;8.45;;;16.20;99.90;;;;;;5083636;28;20051;-67
2023/09/05 05:40:29;;;;;;;12.30;9.18;;;16.10;99.90;;;;;;5094177;28;20040;-67
2023/09/05 05:42:57;;;;;;;11.68;8.30;;;16.00;99.90;;;;;;5080491;28;20099;-67
2023/09/05 05:45:24;;;;;;;13.80;9.70;;;15.90;99.90;;;;;;5123333;28;20047;-67
2023/09/05 05:47:53;;;;;;;13.55;10.45;;;15.80;99.90;;;;;;5077720;28;20084;-66
2023/09/05 05:50:20;;;;;;;13.40;9.13;;;15.80;99.90;;;;;;5092926;28;20051;-66
2023/09/05 05:52:47;;;;;;;12.65;9.23;;;15.70;99.90;;;;;;5102388;28;20043;-66
2023/09/05 05:55:14;;;;;;;14.52;9.75;;;15.70;99.90;;;;;;5112828;28;20054;-66
2023/09/05 05:57:41;;;;;;;12.93;10.05;;;15.70;99.90;;;;;;5112275;28;20050;-66
2023/09/05 06:00:10;;;;;;;15.30;9.35;;;15.70;99.90;;;;;;5129922;28;20055;-66
2023/09/05 06:02:36;;;;;;;12.70;9.73;;;15.70;99.90;;;;;;5112587;28;20113;-66
2023/09/05 06:05:07;;;;;;;13.95;9.75;;;15.70;99.90;;;;;;5112731;28;20384;-66
2023/09/05 06:07:34;;;;;;;13.13;9.40;;;15.80;99.90;;;;;;5112222;28;20436;-66
2023/09/05 06:10:01;;;;;;;13.23;9.07;;;15.90;99.90;;;;;;5083946;28;20117;-66
2023/09/05 06:12:28;;;;;;;15.50;9.85;;;15.90;99.90;;;;;;5074789;28;20403;-65
2023/09/05 06:14:55;;;;;;;13.68;8.93;;;15.90;99.90;;;;;;5113398;28;20105;-66
2023/09/05 06:17:24;;;;;;;12.13;8.88;;;16.10;99.90;;;;;;5094731;27;20452;-67
2023/09/05 06:19:51;;;;;;;12.00;9.07;;;16.20;99.90;;;;;;5114877;28;20047;-66
2023/09/05 06:22:18;;;;;;;11.73;8.70;;;16.20;99.90;;;;;;5079207;28;20044;-66
2023/09/05 06:24:45;;;;;;;9.85;7.65;;;16.60;99.90;;;;;;5102226;27;20048;-66
2023/09/05 06:27:12;;;;;;;10.68;7.70;;;17.50;99.90;;;;;;5079199;27;20040;-65
2023/09/05 06:29:39;;;;;;;12.30;8.32;;;18.50;99.90;;;;;;5077832;27;20495;-66
2023/09/05 06:32:06;;;;;;;9.85;7.82;;;19.50;99.90;;;;;;5094675;28;20047;-67
2023/09/05 06:34:35;;;;;;;10.25;7.68;;;20.30;99.90;;;;;;5095951;28;20051;-66
2023/09/05 06:37:02;;;;;;;9.90;7.28;;;20.90;99.90;;;;;;5079163;28;20048;-67
2023/09/05 06:39:29;;;;;;;10.57;7.35;;;21.60;99.90;;;;;;5096433;28;20043;-66
2023/09/05 06:41:56;;;;;;;10.57;7.43;;;22.10;99.90;;;;;;5114301;28;20047;-67
2023/09/05 06:44:23;;;;;;;12.52;7.38;;;22.60;99.90;;;;;;5128592;27;20047;-67
2023/09/05 06:46:50;;;;;;;8.85;6.65;;;23.20;99.90;;;;;;5134011;27;20103;-67
2023/09/05 06:49:17;;;;;;;13.95;7.55;;;23.60;99.90;;;;;;5100968;27;20055;-67
2023/09/05 06:51:45;;;;;;;10.13;7.57;;;23.90;99.90;;;;;;5132894;27;20053;-67
2023/09/05 06:54:13;;;;;;;11.63;6.30;;;24.20;99.90;;;;;;5133802;27;20047;-67
2023/09/05 06:56:40;;;;;;;9.70;6.40;;;24.70;99.90;;;;;;5114926;27;20091;-67
2023/09/05 06:59:17;;;;;;;11.35;6.63;;;25.20;99.90;;;;;;5133448;27;20039;-67
2023/09/05 07:01:44;;;;;;;9.18;6.80;;;25.50;99.90;;;;;;5115685;27;20062;-67
2023/09/05 07:04:11;;;;;;;10.18;6.18;;;25.60;99.90;;;;;;5113933;27;20052;-67
2023/09/05 07:06:39;;;;;;;23.67;6.95;;;25.90;99.90;;;;;;5096728;27;20051;-67
2023/09/05 07:09:08;;;;;;;8.27;5.55;;;26.30;99.90;;;;;;5095184;28;20050;-67
2023/09/05 07:11:35;;;;;;;11.55;5.85;;;26.70;99.90;;;;;;5094650;27;20131;-67
2023/09/05 07:14:02;;;;;;;11.88;5.95;;;27.00;99.40;;;;;;5077460;28;20071;-67
2023/09/05 07:16:29;;;;;;;9.43;5.68;;;27.30;98.90;;;;;;5078603;27;20047;-67
2023/09/05 07:18:56;;;;;;;7.45;5.18;;;27.50;98.20;;;;;;5094532;27;20044;-67
2023/09/05 07:21:23;;;;;;;7.00;5.07;;;27.90;97.70;;;;;;5078747;28;20488;-67
2023/09/05 07:23:50;;;;;;;7.70;4.88;;;28.20;97.30;;;;;;5099193;27;20055;-67
2023/09/05 07:26:18;;;;;;;7.50;4.60;;;28.50;97.00;;;;;;5095240;28;20047;-66
2023/09/05 07:28:47;;;;;;;10.50;5.38;;;29.10;96.00;;;;;;5095076;27;20517;-66
2023/09/05 07:31:14;;;;;;;8.20;4.72;;;29.20;95.50;;;;;;5093906;27;20040;-68
2023/09/05 07:33:41;;;;;;;6.38;4.50;;;29.70;94.80;;;;;;5094616;27;20052;-67
2023/09/05 07:36:08;;;;;;;9.63;4.50;;;30.10;94.10;;;;;;5077734;27;20040;-66
2023/09/05 07:38:35;;;;;;;7.15;4.35;;;30.40;93.70;;;;;;5108336;28;20093;-67
2023/09/05 07:41:03;;;;;;;6.03;4.13;;;30.50;92.80;;;;;;5094683;27;20058;-68
2023/09/05 07:43:32;;;;;;;8.55;4.22;;;30.20;92.70;;;;;;5092087;28;20100;-67
2023/09/05 07:45:59;;;;;;;5.75;4.35;;;30.60;92.20;;;;;;5076281;28;20056;-67
2023/09/05 07:48:26;;;;;;;5.68;3.95;;;30.30;92.60;;;;;;5094233;27;20040;-67
2023/09/05 07:51:01;;;;;;;10.98;3.65;;;30.70;92.40;;;;;;5076430;27;20063;-68
2023/09/05 07:53:29;;;;;;;6.45;3.70;;;30.70;90.90;;;;;;5093864;27;20082;-68
2023/09/05 07:55:57;;;;;;;5.18;4.00;;;31.10;92.00;;;;;;5094163;27;20048;-68
2023/09/05 07:58:24;;;;;;;6.47;3.25;;;31.70;91.30;;;;;;5075924;28;20166;-68
2023/09/05 08:00:53;;;;;;;6.28;3.42;;;31.80;90.70;;;;;;5093755;28;20040;-68
2023/09/05 08:03:20;;;;;;;6.53;3.88;;;31.90;90.40;;;;;;5094360;27;20052;-67
2023/09/05 08:05:48;;;;;;;5.75;3.53;;;32.40;89.80;;;;;;5104113;27;20104;-68
2023/09/05 08:08:15;;;;;;;5.45;3.15;;;32.30;89.80;;;;;;5075353;28;20071;-68
2023/09/05 08:10:42;;;;;;;5.30;3.55;;;32.30;89.50;;;;;;5076843;27;20048;-67
2023/09/05 08:13:10;;;;;;;8.10;3.50;;;32.50;89.10;;;;;;5075468;28;20101;-67
2023/09/05 08:15:38;;;;;;;11.10;2.83;;;32.40;89.00;;;;;;5076808;28;20399;-67
2023/09/05 08:18:07;;;;;;;4.40;3.03;;;33.10;88.00;;;;;;5092822;28;20043;-67
2023/09/05 08:20:34;;;;;;;6.93;3.55;;;32.80;87.70;;;;;;5093964;28;20082;-68
2023/09/05 08:23:01;;;;;;;8.20;3.65;;;32.90;88.00;;;;;;5077158;28;20058;-67
2023/09/05 08:25:28;;;;;;;12.50;3.42;;;33.00;88.10;;;;;;5105214;27;20134;-67
2023/09/05 08:27:56;;;;;;;6.95;3.00;;;32.90;87.00;;;;;;5076272;28;20047;-68
2023/09/05 08:30:24;;;;;;;4.43;3.00;;;33.10;86.60;;;;;;5095495;27;20044;-67
2023/09/05 08:32:51;;;;;;;5.13;3.70;;;32.90;86.20;;;;;;5076338;27;20048;-68
2023/09/05 08:35:19;;;;;;;8.88;3.30;;;33.10;86.30;;;;;;5092744;27;20491;-69
2023/09/05 08:37:46;;;;;;;11.97;3.37;;;32.60;85.60;;;;;;5092666;28;20399;-68
2023/09/05 08:40:13;;;;;;;9.40;3.60;;;33.20;86.70;;;;;;5091001;28;20051;-68
2023/09/05 08:42:40;;;;;;;7.53;3.28;;;33.50;86.20;;;;;;5100353;27;20619;-68
2023/09/05 08:45:12;;;;;;;10.63;3.75;;;33.70;85.60;;;;;;5113435;27;20046;-68
2023/09/05 08:47:39;;;;;;;6.10;3.30;;;33.80;83.90;;;;;;5113432;27;20043;-68
2023/09/05 08:50:08;;;;;;;7.05;3.35;;;34.30;84.30;;;;;;5101723;28;20048;-68
2023/09/05 08:52:39;;;;;;;6.57;2.75;;;34.60;83.30;;;;;;5094060;28;20062;-69
2023/09/05 08:55:07;;;;;;;9.27;2.78;;;34.90;82.90;;;;;;5088813;28;20075;-68
2023/09/05 08:57:35;;;;;;;5.43;2.50;;;34.70;82.50;;;;;;5075590;28;20058;-68
2023/09/05 09:00:06;;;;;;;7.53;2.63;;;35.30;82.00;;;;;;5111682;28;20047;-68
2023/09/05 09:02:35;;;;;;;5.88;2.63;;;35.90;79.90;;;;;;5092764;28;20058;-68
2023/09/05 09:05:02;;;;;;;7.55;2.97;;;36.10;80.30;;;;;;5093582;28;20051;-68
2023/09/05 09:07:30;;;;;;;8.02;3.15;;;36.30;79.60;;;;;;5077085;28;20113;-68
2023/09/05 09:10:00;;;;;;;7.80;2.58;;;36.30;79.10;;;;;;5092662;28;20044;-70
2023/09/05 09:12:30;;;;;;;11.57;3.35;;;36.00;79.20;;;;;;5109575;28;20495;-68
2023/09/05 09:14:59;;;;;;;4.30;2.30;;;36.20;78.90;;;;;;5110864;28;20059;-67
2023/09/05 09:17:26;;;;;;;5.70;2.65;;;36.70;78.40;;;;;;5093600;28;20138;-68
2023/09/05 09:19:54;;;;;;;3.25;2.10;;;36.40;77.60;;;;;;5105648;28;20044;-68
2023/09/05 09:22:24;;;;;;;3.70;2.50;;;36.70;77.30;;;;;;5075144;28;20058;-68
2023/09/05 09:24:51;;;;;;;9.10;2.72;;;36.70;76.70;;;;;;5096595;28;20054;-68
2023/09/05 09:27:22;;;;;;;4.95;2.60;;;36.70;76.80;;;;;;5131448;28;20411;-68
2023/09/05 09:29:54;;;;;;;10.25;2.60;;;37.00;76.20;;;;;;5131648;28;20043;-68
2023/09/05 09:32:22;;;;;;;4.65;1.80;;;36.80;76.50;;;;;;5107958;28;20044;-68
2023/09/05 09:34:50;;;;;;;4.95;2.50;;;36.90;75.90;;;;;;5089833;28;20051;-67
2023/09/05 09:37:25;;;;;;;3.72;2.10;;;37.00;75.50;;;;;;5092659;28;20051;-68
2023/09/05 09:39:58;;;;;;;3.08;1.83;;;36.60;75.40;;;;;;5095047;28;20047;-68
2023/09/05 09:42:27;;;;;;;3.30;1.90;;;36.90;75.10;;;;;;5111297;28;20044;-69
2023/09/05 09:44:54;;;;;;;;;;;36.70;75.80;;;;;;5093066;28;20047;-68
2023/09/05 09:47:22;;;;;;;4.38;2.10;;;37.50;73.90;;;;;;5092087;28;19920;-69
2023/09/05 09:49:50;;;;;;;6.80;2.05;;;37.70;74.90;;;;;;5112295;28;20445;-69
2023/09/05 09:52:20;;;;;;;4.93;2.15;;;37.70;74.40;;;;;;5113073;28;20043;-69
2023/09/05 09:54:50;;;;;;;4.65;2.03;;;36.70;74.50;;;;;;5095634;28;20097;-68
2023/09/05 09:57:24;;;;;;;4.05;1.98;;;36.80;75.60;;;;;;5092466;28;20043;-69
2023/09/05 09:59:59;;;;;;;4.65;2.03;;;36.80;75.40;;;;;;5111064;28;20399;-69
2023/09/05 10:02:26;;;;;;;6.13;2.13;;;37.10;74.00;;;;;;5086424;28;20112;-69
2023/09/05 10:04:54;;;;;;;4.70;1.88;;;37.10;74.90;;;;;;5113171;28;20051;-68
2023/09/05 10:07:23;;;;;;;3.30;1.80;;;37.30;74.80;;;;;;5113206;27;20044;-68
2023/09/05 10:09:52;;;;;;;4.32;1.58;;;36.90;74.30;;;;;;5096554;28;20062;-69
2023/09/05 10:12:21;;;;;;;3.33;1.67;;;37.50;75.30;;;;;;5114788;28;20051;-68
2023/09/05 10:14:49;;;;;;;3.53;1.73;;;37.90;74.00;;;;;;5111509;28;20043;-68
2023/09/05 10:17:20;;;;;;;3.38;1.48;;;37.80;72.60;;;;;;5112540;28;20090;-69
2023/09/05 10:19:50;;;;;;;5.20;1.85;;;38.40;72.00;;;;;;5096030;28;20074;-68
2023/09/05 10:22:18;;;;;;;2.53;1.50;;;38.50;71.60;;;;;;5112312;28;20039;-69
2023/09/05 10:24:46;;;;;;;5.07;1.83;;;38.50;71.40;;;;;;5114480;27;20070;-68
2023/09/05 10:27:13;;;;;;;3.85;1.80;;;38.50;71.90;;;;;;5093686;28;20070;-68
2023/09/05 10:29:44;;;;;;;3.72;1.98;;;38.60;72.00;;;;;;5114621;28;20455;-68
2023/09/05 10:32:14;;;;;;;3.13;1.70;;;39.10;70.90;;;;;;5105190;28;20043;-69
2023/09/05 10:34:58;;;;;;;4.28;1.88;;;38.90;70.40;;;;;;5096289;27;20043;-68
2023/09/05 10:37:38;;;;;;;8.07;1.90;;;39.20;71.20;;;;;;5078175;27;20056;-68
2023/09/05 10:40:07;;;;;;;4.50;2.10;;;38.60;71.50;;;;;;5096029;28;20039;-69
2023/09/05 10:42:35;;;;;;;5.78;1.98;;;39.10;70.90;;;;;;5095645;28;20066;-69
2023/09/05 10:45:18;;;;;;;2.80;1.90;;;38.90;70.00;;;;;;5096255;28;20502;-69
2023/09/05 10:47:45;;;;;;;4.90;2.10;;;39.10;70.30;;;;;;5112943;28;20484;-70
2023/09/05 10:50:15;;;;;;;3.92;2.03;;;39.30;70.10;;;;;;5095805;28;20391;-69
2023/09/05 10:52:42;;;;;;;4.43;1.88;;;39.30;70.60;;;;;;5093151;28;20047;-69
2023/09/05 10:55:39;;;;;;;4.18;1.73;;;39.20;69.50;;;;;;5113935;28;20457;-68
2023/09/05 10:58:39;;;;;;;7.78;2.00;;;39.10;69.00;;;;;;5097170;28;20523;-69
2023/09/05 11:01:48;;;;;;;4.88;1.98;;;39.40;68.40;;;;;;5077678;28;20408;-68
2023/09/05 11:04:20;;;;;;;2.85;1.58;;;38.90;69.20;;;;;;5094561;28;20075;-69
2023/09/05 11:07:13;;;;;;;3.30;2.03;;;38.80;69.70;;;;;;5109435;28;20048;-69
2023/09/05 11:09:54;;;;;;;3.30;1.90;;;39.20;69.10;;;;;;5091668;28;20403;-69
2023/09/05 11:12:21;;;;;;;4.32;1.92;;;38.90;70.10;;;;;;5094486;28;20480;-69
2023/09/05 11:14:49;;;;;;;3.42;2.03;;;39.20;69.30;;;;;;5077548;27;20454;-69
2023/09/05 11:17:17;;;;;;;4.82;2.08;;;39.70;68.70;;;;;;5094329;27;20052;-69
2023/09/05 11:19:47;;;;;;;3.65;1.60;;;39.30;68.50;;;;;;5095777;28;20470;-68
2023/09/05 11:22:21;;;;;;;3.78;1.80;;;39.70;68.20;;;;;;5077604;28;20079;-68
2023/09/05 11:24:50;;;;;;;3.60;1.83;;;39.50;68.70;;;;;;5094335;27;20102;-68
2023/09/05 11:27:23;;;;;;;3.05;1.90;;;39.60;68.00;;;;;;5094540;27;20047;-68
2023/09/05 11:29:51;;;;;;;4.30;1.88;;;39.70;67.40;;;;;;5111567;27;20078;-68
2023/09/05 11:32:19;;;;;;;2.58;1.58;;;39.70;67.70;;;;;;5132619;27;20058;-69
2023/09/05 11:34:47;;;;;;;3.47;1.60;;;39.30;68.20;;;;;;5115120;27;20047;-69
2023/09/05 11:37:22;;;;;;;5.30;1.80;;;39.30;68.50;;;;;;5076340;28;20472;-68
2023/09/05 11:39:51;;;;;;;3.60;1.67;;;39.50;68.50;;;;;;5078400;28;20056;-69
2023/09/05 11:42:30;;;;;;;3.20;1.45;;;39.30;68.60;;;;;;5094694;27;20714;-69
2023/09/05 11:44:58;;;;;;;2.75;1.52;;;39.90;67.50;;;;;;5092835;28;20044;-69
2023/09/05 11:47:27;;;;;;;2.80;1.50;;;40.00;67.90;;;;;;5077133;28;20052;-68
2023/09/05 11:49:55;;;;;;;4.60;1.60;;;40.00;67.90;;;;;;5077911;28;20615;-69
2023/09/05 11:52:24;;;;;;;2.97;1.27;;;40.30;67.20;;;;;;5093491;27;20048;-68
2023/09/05 11:54:52;;;;;;;3.00;1.92;;;40.70;66.50;;;;;;5090331;28;20052;-68
2023/09/05 11:57:21;;;;;;;3.38;1.40;;;40.30;67.00;;;;;;5086586;28;20104;-68
2023/09/05 11:59:48;;;;;;;;;;;40.60;66.60;;;;;;5112872;28;20051;-68
2023/09/05 12:02:17;;;;;;;3.17;1.70;;;40.80;65.90;;;;;;5110024;28;19920;-70
2023/09/05 12:04:47;;;;;;;3.03;1.50;;;40.30;66.50;;;;;;5113013;28;20047;-69
2023/09/05 12:07:14;;;;;;;3.78;1.40;;;40.30;66.60;;;;;;5094079;28;20528;-68
2023/09/05 12:09:43;;;;;;;4.00;1.63;;;40.10;66.60;;;;;;5105598;27;20116;-68
2023/09/05 12:12:12;;;;;;;4.57;1.33;;;39.70;66.50;;;;;;5107208;27;20161;-69
2023/09/05 12:14:49;;;;;;;2.38;1.10;;;39.50;66.20;;;;;;5099356;27;20048;-68
2023/09/05 12:17:18;;;;;;;2.70;1.30;;;39.90;65.00;;;;;;5076507;28;20056;-68
2023/09/05 12:19:47;;;;;;;2.97;1.40;;;39.80;66.00;;;;;;5098228;28;20039;-69
2023/09/05 12:22:21;;;;;;;2.65;1.35;;;39.60;65.70;;;;;;5076418;28;20098;-69
2023/09/05 12:25:05;;;;;;;3.35;1.42;;;40.00;65.10;;;;;;5101591;27;20044;-68
2023/09/05 12:27:32;;;;;;;4.18;1.65;;;40.20;66.10;;;;;;5127056;27;20058;-68
2023/09/05 12:29:59;;;;;;;2.95;1.23;;;40.00;66.00;;;;;;5076278;28;20051;-68
2023/09/05 12:32:26;;;;;;;2.65;1.40;;;40.60;65.00;;;;;;5095812;28;20044;-68
2023/09/05 12:34:53;;;;;;;2.28;1.30;;;40.50;65.30;;;;;;5089812;28;20063;-68
2023/09/05 12:37:20;;;;;;;2.40;1.30;;;40.30;66.20;;;;;;5110173;27;20403;-69
2023/09/05 12:39:50;;;;;;;3.20;1.10;;;40.90;64.70;;;;;;5112030;28;20399;-69
2023/09/05 12:42:17;;;;;;;3.08;1.13;;;40.70;64.30;;;;;;5089987;28;20067;-68
2023/09/05 12:44:44;;;;;;;2.22;1.30;;;41.00;64.40;;;;;;5093041;28;20047;-68
2023/09/05 12:47:11;;;;;;;4.05;1.40;;;40.90;63.80;;;;;;5112050;28;20048;-68
2023/09/05 12:49:38;;;;;;;3.75;1.40;;;40.70;64.10;;;;;;5093403;28;20054;-67
2023/09/05 12:52:05;;;;;;;2.22;1.10;;;40.50;64.40;;;;;;5112166;28;20043;-67